createdAt,value
2022-10-05T00:00:19.552Z,78.35
2022-10-05T00:03:12.156Z,78.40
2022-10-05T00:05:40.778Z,78.51
2022-10-05T00:08:21.856Z,78.36
2022-10-05T00:10:51.807Z,78.87
2022-10-05T00:13:25.465Z,78.78
2022-10-05T00:16:04.454Z,79.05
2022-10-05T00:18:33.499Z,79.23
2022-10-05T00:21:02.288Z,79.31
2022-10-05T00:23:32.197Z,79.19
2022-10-05T00:26:28.067Z,79.22
2022-10-05T00:28:56.412Z,79.59
2022-10-05T00:31:31.016Z,79.78
2022-10-05T00:33:59.447Z,79.67
2022-10-05T00:36:30.302Z,79.76
2022-10-05T00:39:02.218Z,79.68
2022-10-05T00:41:55.346Z,79.47
2022-10-05T00:44:38.751Z,79.78
2022-10-05T00:47:31.341Z,79.70
2022-10-05T00:50:08.788Z,79.77
2022-10-05T00:52:59.105Z,79.79
2022-10-05T00:55:45.578Z,79.81
2022-10-05T00:58:48.342Z,79.79
2022-10-05T01:01:25.961Z,80.07
2022-10-05T01:04:00.638Z,79.95
2022-10-05T01:07:01.226Z,79.89
2022-10-05T01:09:44.874Z,79.96
2022-10-05T01:12:51.018Z,80.07
2022-10-05T01:15:33.396Z,80.62
2022-10-05T01:18:13.274Z,80.53
2022-10-05T01:21:04.008Z,80.88
2022-10-05T01:23:52.340Z,80.84
2022-10-05T01:26:29.690Z,80.89
2022-10-05T01:29:22.761Z,80.82
2022-10-05T01:31:52.529Z,80.81
2022-10-05T01:34:34.185Z,80.95
2022-10-05T01:37:25.759Z,80.83
2022-10-05T01:40:09.385Z,80.61
2022-10-05T01:42:59.797Z,80.43
2022-10-05T01:45:54.219Z,80.19
2022-10-05T01:48:41.280Z,80.06
2022-10-05T01:51:38.458Z,79.77
2022-10-05T01:54:31.797Z,79.43
2022-10-05T01:57:06.219Z,79.55
2022-10-05T01:59:40.555Z,79.53
2022-10-05T02:02:17.096Z,79.36
2022-10-05T02:05:03.389Z,78.96
2022-10-05T02:07:48.330Z,79.04
2022-10-05T02:10:37.283Z,79.11
2022-10-05T02:13:10.826Z,79.06
2022-10-05T02:15:50.181Z,79.06
2022-10-05T02:18:24.803Z,78.89
2022-10-05T02:20:58.654Z,79.01
2022-10-05T02:23:33.498Z,78.80
2022-10-05T02:26:03.520Z,78.78
2022-10-05T02:28:45.546Z,78.46
2022-10-05T02:31:22.949Z,78.41
2022-10-05T02:33:51.376Z,78.46
2022-10-05T02:36:32.590Z,78.20
2022-10-05T02:39:35.301Z,77.79
2022-10-05T02:42:31.084Z,77.60
2022-10-05T02:45:08.362Z,77.30
2022-10-05T02:48:08.584Z,77.46
2022-10-05T02:51:02.503Z,77.08
2022-10-05T02:53:54.292Z,77.14
2022-10-05T02:56:48.407Z,77.04
2022-10-05T02:59:40.711Z,77.06
2022-10-05T03:02:24.871Z,77.17
2022-10-05T03:05:13.604Z,77.10
2022-10-05T03:07:47.325Z,76.88
2022-10-05T03:10:32.392Z,77.11
2022-10-05T03:13:15.940Z,77.35
2022-10-05T03:16:08.104Z,77.05
2022-10-05T03:18:44.943Z,77.20
2022-10-05T03:21:29.203Z,77.32
2022-10-05T03:24:22.544Z,77.64
2022-10-05T03:27:23.028Z,77.98
2022-10-05T03:30:15.631Z,78.29
2022-10-05T03:33:09.380Z,78.78
2022-10-05T03:36:01.875Z,79.06
2022-10-05T03:38:49.072Z,79.47
2022-10-05T03:41:53.240Z,79.51
2022-10-05T03:44:44.718Z,80.08
2022-10-05T03:47:20.430Z,80.02
2022-10-05T03:50:17.457Z,80.45
2022-10-05T03:52:51.719Z,80.80
2022-10-05T03:55:52.652Z,81.02
2022-10-05T03:58:34.300Z,81.40
2022-10-05T04:01:09.159Z,82.07
2022-10-05T04:03:50.443Z,82.08
2022-10-05T04:06:39.902Z,82.06
2022-10-05T04:09:17.257Z,82.17
2022-10-05T04:11:58.373Z,82.31
2022-10-05T04:14:39.318Z,82.30
2022-10-05T04:17:22.127Z,82.18
2022-10-05T04:20:09.738Z,82.70
2022-10-05T04:22:43.876Z,82.46
2022-10-05T04:25:24.112Z,82.73
2022-10-05T04:28:17.926Z,82.85
2022-10-05T04:30:50.912Z,82.82
2022-10-05T04:33:21.627Z,82.72
2022-10-05T04:36:08.282Z,82.14
2022-10-05T04:38:39.174Z,82.52
2022-10-05T04:41:32.036Z,82.60
2022-10-05T04:44:21.921Z,82.57
2022-10-05T04:47:08.626Z,82.29
2022-10-05T04:50:13.792Z,82.06
2022-10-05T04:53:00.361Z,82.29
2022-10-05T04:55:52.650Z,81.98
2022-10-05T04:58:42.376Z,82.11
2022-10-05T05:01:29.749Z,81.81
2022-10-05T05:04:16.681Z,81.99
2022-10-05T05:07:03.863Z,81.97
2022-10-05T05:10:18.213Z,81.61
2022-10-05T05:12:55.531Z,81.32
2022-10-05T05:15:27.181Z,81.00
2022-10-05T05:18:07.365Z,80.89
2022-10-05T05:20:54.045Z,80.50
2022-10-05T05:23:48.508Z,80.14
2022-10-05T05:26:17.415Z,79.36
2022-10-05T05:29:08.458Z,79.10
2022-10-05T05:31:57.677Z,77.88
2022-10-05T05:34:32.227Z,76.59
2022-10-05T05:37:14.490Z,77.34
2022-10-05T05:39:54.782Z,77.26
2022-10-05T05:42:29.144Z,77.15
2022-10-05T05:45:06.378Z,75.20
2022-10-05T05:47:39.307Z,74.99
2022-10-05T05:50:30.650Z,75.31
2022-10-05T05:53:03.713Z,73.79
2022-10-05T05:55:41.987Z,72.05
2022-10-05T05:58:32.512Z,73.06
2022-10-05T06:01:33.143Z,72.89
2022-10-05T06:04:18.680Z,72.81
2022-10-05T06:06:51.800Z,72.74
2022-10-05T06:09:27.167Z,71.86
2022-10-05T06:12:24.506Z,71.50
2022-10-05T06:14:58.479Z,71.16
2022-10-05T06:17:54.993Z,71.30
2022-10-05T06:20:49.642Z,71.11
2022-10-05T06:23:45.208Z,71.22
2022-10-05T06:26:19.379Z,69.87
2022-10-05T06:28:56.353Z,69.20
2022-10-05T06:31:58.897Z,67.87
2022-10-05T06:34:34.254Z,67.03
2022-10-05T06:37:13.406Z,66.15
2022-10-05T06:40:01.546Z,65.85
2022-10-05T06:42:52.894Z,66.09
2022-10-05T06:45:42.882Z,66.31
2022-10-05T06:49:02.364Z,65.89
2022-10-05T06:52:03.559Z,64.81
2022-10-05T06:54:43.584Z,63.84
2022-10-05T06:57:36.736Z,63.37
2022-10-05T07:00:20.383Z,64.25
2022-10-05T07:03:28.308Z,63.08
2022-10-05T07:06:13.065Z,61.04
2022-10-05T07:08:57.185Z,60.06
2022-10-05T07:11:36.487Z,58.73
2022-10-05T07:14:26.514Z,58.52
2022-10-05T07:17:07.068Z,56.69
2022-10-05T07:19:48.283Z,55.79
2022-10-05T07:22:39.090Z,55.35
2022-10-05T07:25:18.807Z,55.79
2022-10-05T07:28:14.177Z,54.88
2022-10-05T07:31:09.573Z,53.56
2022-10-05T07:34:10.378Z,51.95
2022-10-05T07:37:14.665Z,50.62
2022-10-05T07:40:25.267Z,50.68
2022-10-05T07:43:21.958Z,49.58
2022-10-05T07:46:22.577Z,49.09
2022-10-05T07:49:14.778Z,48.89
2022-10-05T07:51:48.875Z,48.49
2022-10-05T07:54:23.360Z,48.90
2022-10-05T07:57:24.132Z,48.58
2022-10-05T08:00:02.180Z,48.68
2022-10-05T08:02:53.531Z,49.82
2022-10-05T08:05:41.069Z,49.88
2022-10-05T08:08:47.170Z,50.89
2022-10-05T08:11:22.404Z,49.87
2022-10-05T08:14:02.540Z,50.29
2022-10-05T08:16:38.111Z,50.85
2022-10-05T08:19:18.129Z,50.89
2022-10-05T08:21:58.858Z,50.65
2022-10-05T08:24:45.703Z,48.91
2022-10-05T08:27:55.368Z,48.77
2022-10-05T08:30:25.299Z,50.73
2022-10-05T08:33:17.013Z,49.74
2022-10-05T08:35:56.037Z,49.79
2022-10-05T08:38:31.916Z,49.32
2022-10-05T08:41:15.759Z,49.09
2022-10-05T08:44:23.915Z,48.42
2022-10-05T08:47:08.969Z,47.50
2022-10-05T08:50:10.510Z,45.80
2022-10-05T08:52:44.834Z,47.01
2022-10-05T08:55:41.476Z,46.84
2022-10-05T08:58:12.628Z,46.67
2022-10-05T09:01:10.051Z,46.68
2022-10-05T09:04:12.925Z,47.14
2022-10-05T09:07:00.241Z,46.62
2022-10-05T09:10:04.008Z,45.58
2022-10-05T09:12:55.193Z,44.97
2022-10-05T09:16:01.050Z,43.13
2022-10-05T09:18:57.280Z,43.16
2022-10-05T09:21:50.620Z,43.36
2022-10-05T09:24:39.531Z,41.95
2022-10-05T09:27:14.688Z,41.36
2022-10-05T09:30:18.781Z,43.16
2022-10-05T09:33:25.911Z,42.26
2022-10-05T09:36:12.998Z,42.38
2022-10-05T09:38:59.954Z,41.22
2022-10-05T09:41:57.009Z,40.77
2022-10-05T09:44:34.722Z,41.40
2022-10-05T09:47:23.836Z,39.93
2022-10-05T09:50:08.267Z,37.45
2022-10-05T09:52:45.570Z,36.41
2022-10-05T09:55:52.110Z,37.28
2022-10-05T09:58:25.059Z,37.10
2022-10-05T10:01:34.556Z,36.38
2022-10-05T10:04:10.398Z,38.00
2022-10-05T10:06:38.662Z,38.57
2022-10-05T10:09:39.652Z,39.12
2022-10-05T10:12:25.985Z,38.34
2022-10-05T10:15:01.884Z,36.02
2022-10-05T10:17:48.287Z,34.77
2022-10-05T10:20:26.468Z,34.96
2022-10-05T10:22:57.794Z,34.73
2022-10-05T10:25:54.722Z,35.34
2022-10-05T10:28:25.955Z,35.21
2022-10-05T10:31:25.406Z,36.44
2022-10-05T10:34:10.297Z,35.75
2022-10-05T10:37:17.621Z,35.86
2022-10-05T10:40:23.700Z,36.82
2022-10-05T10:43:31.254Z,36.69
2022-10-05T10:46:18.249Z,35.85
2022-10-05T10:49:17.020Z,35.94
2022-10-05T10:51:45.242Z,36.70
2022-10-05T10:54:35.148Z,37.00
2022-10-05T10:57:12.123Z,36.11
2022-10-05T11:00:08.145Z,35.49
2022-10-05T11:03:01.300Z,33.00
2022-10-05T11:05:46.352Z,33.98
2022-10-05T11:08:32.172Z,32.98
2022-10-05T11:11:31.651Z,34.11
2022-10-05T11:14:11.555Z,35.09
2022-10-05T11:17:01.468Z,36.07
2022-10-05T11:20:03.619Z,36.04
2022-10-05T11:22:54.794Z,36.04
2022-10-05T11:25:31.941Z,36.61
2022-10-05T11:28:38.377Z,35.79
2022-10-05T11:31:06.745Z,35.22
2022-10-05T11:33:57.233Z,35.90
2022-10-05T11:36:40.836Z,36.61
2022-10-05T11:39:38.411Z,35.63
2022-10-05T11:42:25.539Z,38.44
2022-10-05T11:45:12.013Z,36.79
2022-10-05T11:47:40.237Z,36.14
2022-10-05T11:50:17.388Z,36.28
2022-10-05T11:52:58.616Z,37.18
2022-10-05T11:55:34.368Z,38.20
2022-10-05T11:58:15.133Z,37.41
2022-10-05T12:00:50.881Z,35.86
2022-10-05T12:03:34.266Z,36.06
2022-10-05T12:06:25.920Z,36.07
2022-10-05T12:09:23.094Z,35.61
2022-10-05T12:12:03.239Z,35.63
2022-10-05T12:14:34.485Z,36.19
2022-10-05T12:17:08.947Z,38.23
2022-10-05T12:19:59.863Z,36.58
2022-10-05T12:22:35.075Z,36.96
2022-10-05T12:25:22.132Z,36.82
2022-10-05T12:27:54.795Z,35.74
2022-10-05T12:30:55.537Z,36.75
2022-10-05T12:33:42.747Z,36.89
2022-10-05T12:36:15.663Z,37.03
2022-10-05T12:38:55.616Z,36.97
2022-10-05T12:41:54.283Z,36.99
2022-10-05T12:44:42.950Z,37.42
2022-10-05T12:47:26.656Z,37.24
2022-10-05T12:50:20.772Z,37.30
2022-10-05T12:53:11.025Z,38.25
2022-10-05T12:56:09.775Z,37.80
2022-10-05T12:59:19.862Z,37.98
2022-10-05T13:02:02.811Z,38.17
2022-10-05T13:04:57.153Z,38.95
2022-10-05T13:07:38.807Z,39.60
2022-10-05T13:10:28.899Z,39.37
2022-10-05T13:13:25.198Z,39.92
2022-10-05T13:16:12.347Z,40.62
2022-10-05T13:18:59.505Z,40.64
2022-10-05T13:21:30.374Z,40.71
2022-10-05T13:24:01.657Z,40.74
2022-10-05T13:26:44.547Z,40.89
2022-10-05T13:29:43.584Z,41.62
2022-10-05T13:32:23.908Z,41.30
2022-10-05T13:35:11.285Z,41.87
2022-10-05T13:37:53.240Z,41.95
2022-10-05T13:40:46.845Z,42.07
2022-10-05T13:43:29.922Z,42.40
2022-10-05T13:46:07.403Z,42.90
2022-10-05T13:48:57.476Z,43.06
2022-10-05T13:51:41.495Z,44.23
2022-10-05T13:54:28.618Z,43.80
2022-10-05T13:57:07.461Z,44.42
2022-10-05T13:59:40.513Z,45.11
2022-10-05T14:02:20.498Z,44.44
2022-10-05T14:04:51.402Z,44.55
2022-10-05T14:07:30.503Z,45.13
2022-10-05T14:10:00.072Z,46.22
2022-10-05T14:12:29.071Z,45.80
2022-10-05T14:14:58.816Z,45.31
2022-10-05T14:17:29.236Z,45.58
2022-10-05T14:20:14.279Z,46.63
2022-10-05T14:22:43.143Z,46.64
2022-10-05T14:25:20.012Z,46.89
2022-10-05T14:28:11.429Z,47.14
2022-10-05T14:30:40.702Z,47.52
2022-10-05T14:33:18.511Z,47.68
2022-10-05T14:35:52.710Z,48.06
2022-10-05T14:38:26.515Z,48.50
2022-10-05T14:41:20.950Z,48.78
2022-10-05T14:44:08.879Z,49.36
2022-10-05T14:46:38.753Z,49.48
2022-10-05T14:49:13.499Z,49.92
2022-10-05T14:51:43.024Z,50.47
2022-10-05T14:54:47.102Z,50.55
2022-10-05T14:57:39.477Z,50.66
2022-10-05T15:00:18.818Z,51.04
2022-10-05T15:02:48.356Z,51.11
2022-10-05T15:05:31.556Z,51.53
2022-10-05T15:08:36.287Z,51.68
2022-10-05T15:11:14.320Z,51.77
2022-10-05T15:13:45.428Z,51.94
2022-10-05T15:16:25.215Z,51.93
2022-10-05T15:19:18.183Z,52.46
2022-10-05T15:21:58.398Z,52.56
2022-10-05T15:24:43.638Z,53.22
2022-10-05T15:27:32.177Z,53.42
2022-10-05T15:30:11.728Z,54.10
2022-10-05T15:32:55.719Z,54.45
2022-10-05T15:35:38.507Z,54.36
2022-10-05T15:38:09.751Z,54.45
2022-10-05T15:40:46.688Z,54.73
2022-10-05T15:43:22.023Z,55.01
2022-10-05T15:45:57.276Z,55.13
2022-10-05T15:48:43.614Z,56.05
2022-10-05T15:51:30.533Z,56.27
2022-10-05T15:54:20.192Z,56.60
2022-10-05T15:56:57.713Z,57.14
2022-10-05T15:59:57.095Z,57.18
2022-10-05T16:02:41.970Z,57.43
2022-10-05T16:05:53.292Z,57.42
2022-10-05T16:08:54.347Z,57.73
2022-10-05T16:11:46.694Z,57.60
2022-10-05T16:14:36.478Z,58.61
2022-10-05T16:17:41.748Z,58.97
2022-10-05T16:20:17.604Z,59.51
2022-10-05T16:22:48.484Z,59.78
2022-10-05T16:25:40.253Z,59.98
2022-10-05T16:28:36.970Z,60.18
2022-10-05T16:31:06.963Z,60.13
2022-10-05T16:33:52.983Z,60.40
2022-10-05T16:36:36.621Z,61.03
2022-10-05T16:39:35.381Z,61.32
2022-10-05T16:42:17.120Z,61.38
2022-10-05T16:45:16.482Z,61.64
2022-10-05T16:48:22.427Z,61.60
2022-10-05T16:51:23.462Z,61.87
2022-10-05T16:53:59.428Z,62.06
2022-10-05T16:56:39.503Z,62.16
2022-10-05T16:59:35.099Z,62.39
2022-10-05T17:02:24.729Z,62.71
2022-10-05T17:05:51.512Z,62.17
2022-10-05T17:08:50.287Z,62.06
2022-10-05T17:11:41.623Z,63.03
2022-10-05T17:14:24.989Z,63.20
2022-10-05T17:17:16.165Z,62.92
2022-10-05T17:20:03.326Z,63.82
2022-10-05T17:22:46.739Z,63.73
2022-10-05T17:25:24.409Z,64.55
2022-10-05T17:28:16.228Z,64.23
2022-10-05T17:30:54.031Z,65.38
2022-10-05T17:33:33.688Z,64.56
2022-10-05T17:36:09.365Z,63.94
2022-10-05T17:38:46.658Z,64.70
2022-10-05T17:41:22.617Z,64.90
2022-10-05T17:44:16.513Z,64.83
2022-10-05T17:46:51.853Z,64.64
2022-10-05T17:49:47.211Z,65.17
2022-10-05T17:52:46.827Z,66.08
2022-10-05T17:55:27.177Z,66.17
2022-10-05T17:57:59.924Z,66.41
2022-10-05T18:00:40.843Z,65.87
2022-10-05T18:03:49.719Z,66.33
2022-10-05T18:06:28.509Z,66.68
2022-10-05T18:09:20.633Z,66.32
2022-10-05T18:12:16.843Z,66.20
2022-10-05T18:15:01.221Z,66.42
2022-10-05T18:17:41.285Z,66.52
2022-10-05T18:20:23.169Z,66.78
2022-10-05T18:23:01.708Z,66.95
2022-10-05T18:25:48.585Z,67.02
2022-10-05T18:28:26.332Z,66.90
2022-10-05T18:31:26.996Z,66.73
2022-10-05T18:34:18.766Z,66.42
2022-10-05T18:37:07.426Z,66.63
2022-10-05T18:40:09.949Z,66.28
2022-10-05T18:42:58.420Z,66.15
2022-10-05T18:45:38.265Z,68.23
2022-10-05T18:48:35.770Z,67.70
2022-10-05T18:51:19.101Z,67.89
2022-10-05T18:54:20.104Z,67.89
2022-10-05T18:56:51.134Z,67.80
2022-10-05T18:59:47.099Z,67.97
2022-10-05T19:02:34.054Z,67.85
2022-10-05T19:05:45.804Z,68.27
2022-10-05T19:08:39.372Z,68.69
2022-10-05T19:11:44.551Z,68.54
2022-10-05T19:14:31.707Z,68.89
2022-10-05T19:17:26.751Z,69.62
2022-10-05T19:20:17.690Z,69.38
2022-10-05T19:23:45.049Z,70.60
2022-10-05T19:26:25.359Z,70.88
2022-10-05T19:29:14.124Z,70.70
2022-10-05T19:32:00.107Z,69.97
2022-10-05T19:34:48.995Z,71.52
2022-10-05T19:37:38.999Z,71.61
2022-10-05T19:40:10.033Z,71.52
2022-10-05T19:42:45.363Z,72.04
2022-10-05T19:45:31.545Z,71.26
2022-10-05T19:48:26.479Z,71.45
2022-10-05T19:50:58.488Z,71.97
2022-10-05T19:53:31.252Z,72.01
2022-10-05T19:56:20.746Z,72.03
2022-10-05T19:58:50.420Z,72.57
2022-10-05T20:01:35.646Z,72.07
2022-10-05T20:04:05.273Z,72.36
2022-10-05T20:06:34.139Z,72.07
2022-10-05T20:09:20.140Z,71.98
2022-10-05T20:11:52.940Z,71.91
2022-10-05T20:14:30.310Z,71.75
2022-10-05T20:17:36.819Z,71.80
2022-10-05T20:20:30.750Z,72.27
2022-10-05T20:23:18.488Z,72.72
2022-10-05T20:26:07.232Z,72.33
2022-10-05T20:28:36.448Z,72.70
2022-10-05T20:31:08.018Z,72.25
2022-10-05T20:33:36.399Z,72.02
2022-10-05T20:36:04.885Z,72.03
2022-10-05T20:38:40.622Z,71.74
2022-10-05T20:41:09.648Z,71.64
2022-10-05T20:43:39.551Z,71.92
2022-10-05T20:46:07.855Z,71.70
2022-10-05T20:48:36.739Z,72.46
2022-10-05T20:51:05.152Z,72.51
2022-10-05T20:53:33.911Z,73.23
2022-10-05T20:56:04.673Z,73.50
2022-10-05T20:58:33.010Z,73.08
2022-10-05T21:01:20.077Z,73.74
2022-10-05T21:03:50.881Z,73.58
2022-10-05T21:06:21.184Z,74.38
2022-10-05T21:08:51.631Z,74.96
2022-10-05T21:11:20.115Z,74.38
2022-10-05T21:13:49.618Z,74.70
2022-10-05T21:16:19.229Z,74.18
2022-10-05T21:18:49.007Z,74.82
2022-10-05T21:21:18.291Z,75.75
2022-10-05T21:23:51.375Z,75.52
2022-10-05T21:26:19.790Z,75.61
2022-10-05T21:28:48.230Z,76.13
2022-10-05T21:31:16.657Z,76.22
2022-10-05T21:33:45.076Z,75.58
2022-10-05T21:36:14.857Z,76.03
2022-10-05T21:38:43.147Z,75.99
2022-10-05T21:41:11.481Z,76.06
2022-10-05T21:43:40.204Z,76.24
2022-10-05T21:46:10.232Z,76.44
2022-10-05T21:48:40.005Z,76.43
2022-10-05T21:51:10.482Z,76.34
2022-10-05T21:53:42.188Z,76.03
2022-10-05T21:56:15.481Z,76.02
2022-10-05T21:58:46.728Z,76.17
2022-10-05T22:01:18.834Z,76.73
2022-10-05T22:03:50.199Z,76.21
2022-10-05T22:06:18.526Z,76.26
2022-10-05T22:08:46.929Z,76.04
2022-10-05T22:11:18.011Z,77.10
2022-10-05T22:13:48.968Z,76.38
2022-10-05T22:16:18.604Z,76.19
2022-10-05T22:18:48.453Z,76.27
2022-10-05T22:21:17.455Z,76.25
2022-10-05T22:23:47.105Z,77.31
2022-10-05T22:26:19.736Z,77.22
2022-10-05T22:28:48.959Z,77.06
2022-10-05T22:31:18.719Z,77.09
2022-10-05T22:33:47.018Z,77.15
2022-10-05T22:36:16.308Z,77.51
2022-10-05T22:38:46.759Z,78.14
2022-10-05T22:41:18.520Z,78.09
2022-10-05T22:43:51.087Z,78.30
2022-10-05T22:46:20.069Z,78.62
2022-10-05T22:48:48.424Z,78.35
2022-10-05T22:51:17.113Z,78.04
2022-10-05T22:53:45.472Z,78.37
2022-10-05T22:56:14.584Z,78.52
2022-10-05T22:58:43.888Z,78.76
2022-10-05T23:01:16.936Z,78.84
2022-10-05T23:03:46.270Z,78.87
2022-10-05T23:06:17.920Z,78.65
2022-10-05T23:08:47.212Z,78.63
2022-10-05T23:11:18.527Z,78.90
2022-10-05T23:13:47.161Z,78.86
2022-10-05T23:16:22.423Z,78.64
2022-10-05T23:18:53.054Z,78.63
2022-10-05T23:21:24.030Z,78.29
2022-10-05T23:23:52.323Z,78.28
2022-10-05T23:26:23.361Z,78.61
2022-10-05T23:28:52.410Z,78.54
2022-10-05T23:31:30.482Z,78.73
2022-10-05T23:33:58.809Z,78.81
2022-10-05T23:36:32.500Z,78.91
2022-10-05T23:39:00.783Z,78.76
2022-10-05T23:41:29.441Z,78.78
2022-10-05T23:43:57.831Z,78.86
2022-10-05T23:46:26.397Z,78.76
2022-10-05T23:48:54.754Z,78.55
2022-10-05T23:51:23.045Z,78.21
2022-10-05T23:53:51.413Z,78.15
2022-10-05T23:56:19.711Z,78.22
2022-10-05T23:58:48.009Z,78.63
